Nyingchi, China
Current Conditions -  °F | °C
As of 1:50 AM on Tuesday 25 Nov 2014 (Local Time) from VGHS Reporting Station
Haze Haze  
Wind Chill: 68°   Ceiling: Unl
Heat Index: 68°   Visibility: 1.5mi
Dew Point: 61°   Wind: 5mph
Humidity: 78%   Direction: 310°NW
Pressure: 29.91"   Gusts: NA
Location:  29.57°N, 94.47°E
Report Text: VGHS 241750Z 31004KT 2500 BR NSC 20/16 Q1013 TEMPO S/VIS 2000M
Loading
Personal Weather Stations






























Interactive Weather Map New forecast layout! Learn more

10-Day Weather Forecast

Advertisements
Track Severe Weather on mobile